Time;durP1;ratioP1;P1;durP2;ratioP2;P2;SDS_P1;SDS_P2;PMS_P1;PMS_P2;Temp;Humidity;BMP_temperature;BMP_pressure;BME280_temperature;BME280_humidity;BME280_pressure;Samples;Min_cycle;Max_cycle;Signal;HPM_P1;HPM_P2
2024/01/11 00:00:37;;;;;;;31.67;20.02;;;;;;;;;;5017560;28;20164;-66
2024/01/11 00:03:03;;;;;;;32.70;20.08;;;;;;;;;;4994966;28;20129;-66
2024/01/11 00:05:29;;;;;;;31.77;19.58;;;;;;;;;;4988873;28;20053;-66
2024/01/11 00:07:56;;;;;;;29.83;20.17;;;;;;;;;;5015691;28;20053;-66
2024/01/11 00:10:23;;;;;;;30.80;19.75;;;;;;;;;;4989066;28;20347;-66
2024/01/11 00:12:49;;;;;;;35.42;20.60;;;;;;;;;;4985188;28;20073;-66
2024/01/11 00:15:15;;;;;;;32.97;20.45;;;;;;;;;;4986773;28;20042;-66
2024/01/11 00:17:47;;;;;;;28.20;19.38;;;;;;;;;;4987932;28;20050;-66
2024/01/11 00:20:13;;;;;;;32.97;20.30;;;;;;;;;;4982319;28;20046;-66
2024/01/11 00:22:39;;;;;;;32.60;19.58;;;;;;;;;;5019701;28;20054;-66
2024/01/11 00:25:05;;;;;;;29.52;19.95;;;;;;;;;;4988416;28;20468;-66
2024/01/11 00:27:31;;;;;;;30.33;19.63;;;;;;;;;;4984327;28;20522;-66
2024/01/11 00:29:57;;;;;;;32.30;19.88;;;;;;;;;;4988459;28;20055;-66
2024/01/11 00:32:23;;;;;;;31.50;20.42;;;;;;;;;;4995135;28;20081;-66
2024/01/11 00:34:52;;;;;;;31.15;19.02;;;;;;;;;;4983391;28;20351;-66
2024/01/11 00:37:18;;;;;;;31.13;19.38;;;;;;;;;;4990345;28;20046;-66
2024/01/11 00:39:56;;;;;;;31.98;19.48;;;;;;;;;;5038992;28;20061;-66
2024/01/11 00:42:22;;;;;;;33.13;21.05;;;;;;;;;;5003500;28;20216;-66
2024/01/11 00:44:49;;;;;;;34.65;21.00;;;;;;;;;;4994443;28;20166;-66
2024/01/11 00:47:15;;;;;;;32.38;19.77;;;;;;;;;;5041328;28;20053;-66
2024/01/11 00:49:42;;;;;;;31.15;20.88;;;;;;;;;;5000659;28;20053;-66
2024/01/11 00:52:09;;;;;;;32.63;19.95;;;;;;;;;;5000573;28;20054;-66
2024/01/11 00:54:35;;;;;;;29.65;20.08;;;;;;;;;;5000390;28;20052;-66
2024/01/11 00:57:01;;;;;;;31.55;20.42;;;;;;;;;;4977144;28;20050;-66
2024/01/11 00:59:27;;;;;;;30.23;19.88;;;;;;;;;;4990387;28;20521;-66
2024/01/11 01:01:53;;;;;;;34.88;20.70;;;;;;;;;;5000078;28;20042;-66
2024/01/11 01:04:19;;;;;;;31.45;20.23;;;;;;;;;;4999625;28;20053;-66
2024/01/11 01:06:45;;;;;;;32.65;20.30;;;;;;;;;;5014443;28;20058;-66
2024/01/11 01:09:13;;;;;;;36.53;20.98;;;;;;;;;;4988558;28;20624;-66
2024/01/11 01:11:39;;;;;;;35.45;21.23;;;;;;;;;;4985527;28;20057;-66
2024/01/11 01:14:05;;;;;;;36.95;22.05;;;;;;;;;;4982044;28;20086;-66
2024/01/11 01:16:31;;;;;;;34.40;21.75;;;;;;;;;;4988494;28;20512;-67
2024/01/11 01:19:06;;;;;;;33.28;20.42;;;;;;;;;;4989349;28;20034;-66
2024/01/11 01:21:32;;;;;;;33.97;20.15;;;;;;;;;;4987518;28;20073;-66
2024/01/11 01:23:58;;;;;;;34.88;21.65;;;;;;;;;;5004095;28;20082;-65
2024/01/11 01:26:24;;;;;;;34.05;21.70;;;;;;;;;;4976218;28;20479;-66
2024/01/11 01:28:50;;;;;;;35.75;21.25;;;;;;;;;;4987415;28;20570;-66
2024/01/11 01:31:16;;;;;;;35.60;20.90;;;;;;;;;;4984831;28;20132;-66
2024/01/11 01:33:42;;;;;;;37.55;21.83;;;;;;;;;;4988715;28;20056;-66
2024/01/11 01:36:11;;;;;;;34.67;21.52;;;;;;;;;;4984886;28;20379;-66
2024/01/11 01:38:37;;;;;;;34.50;21.67;;;;;;;;;;4988180;28;20385;-66
2024/01/11 01:41:03;;;;;;;31.48;20.77;;;;;;;;;;5018033;28;20046;-69
2024/01/11 01:43:29;;;;;;;33.97;20.67;;;;;;;;;;4990119;28;20042;-66
2024/01/11 01:45:55;;;;;;;37.22;22.50;;;;;;;;;;5016589;28;20383;-66
2024/01/11 01:48:21;;;;;;;34.78;20.48;;;;;;;;;;4989420;28;20090;-66
2024/01/11 01:50:50;;;;;;;40.20;23.02;;;;;;;;;;5021069;28;20053;-66
2024/01/11 01:53:23;;;;;;;36.53;21.73;;;;;;;;;;4983466;28;20066;-66
2024/01/11 01:55:51;;;;;;;33.92;21.50;;;;;;;;;;4988429;28;20077;-66
2024/01/11 01:58:18;;;;;;;38.17;22.45;;;;;;;;;;4980424;28;20106;-66
2024/01/11 02:00:45;;;;;;;38.40;21.92;;;;;;;;;;4992510;28;20050;-66
2024/01/11 02:03:11;;;;;;;37.42;22.10;;;;;;;;;;4989092;28;20115;-66
2024/01/11 02:05:37;;;;;;;38.05;22.33;;;;;;;;;;4991336;28;20056;-66
2024/01/11 02:08:04;;;;;;;36.97;21.85;;;;;;;;;;5025331;28;20515;-66
2024/01/11 02:10:33;;;;;;;37.10;23.08;;;;;;;;;;4991654;28;20402;-66
2024/01/11 02:12:59;;;;;;;36.97;22.20;;;;;;;;;;4990305;28;20415;-66
2024/01/11 02:15:25;;;;;;;36.63;22.45;;;;;;;;;;4985513;28;20057;-67
2024/01/11 02:17:51;;;;;;;37.17;22.55;;;;;;;;;;5022745;28;20050;-66
2024/01/11 02:20:17;;;;;;;38.28;23.58;;;;;;;;;;5021631;28;20049;-66
2024/01/11 02:22:45;;;;;;;34.90;21.65;;;;;;;;;;4987085;28;20042;-67
2024/01/11 02:25:11;;;;;;;37.30;22.35;;;;;;;;;;4992076;28;20050;-66
2024/01/11 02:27:47;;;;;;;36.15;21.50;;;;;;;;;;4989930;28;20069;-66
2024/01/11 02:30:13;;;;;;;32.25;20.27;;;;;;;;;;4979229;28;20050;-66
2024/01/11 02:32:39;;;;;;;38.33;21.60;;;;;;;;;;5024522;28;20041;-66
2024/01/11 02:35:05;;;;;;;38.33;21.13;;;;;;;;;;4989926;28;20054;-66
2024/01/11 02:37:31;;;;;;;37.58;23.33;;;;;;;;;;5006998;28;20043;-66
2024/01/11 02:39:57;;;;;;;36.28;23.83;;;;;;;;;;4991117;28;20410;-66
2024/01/11 02:42:23;;;;;;;37.03;23.15;;;;;;;;;;4989581;28;20052;-66
2024/01/11 02:44:49;;;;;;;35.42;21.85;;;;;;;;;;4994810;28;20054;-67
2024/01/11 02:47:15;;;;;;;38.83;22.85;;;;;;;;;;5024977;28;20580;-66
2024/01/11 02:49:41;;;;;;;37.70;21.85;;;;;;;;;;4992879;28;20057;-66
2024/01/11 02:52:07;;;;;;;37.67;22.30;;;;;;;;;;4984513;28;20062;-66
2024/01/11 02:54:33;;;;;;;34.42;22.15;;;;;;;;;;4989785;28;20478;-66
2024/01/11 02:56:59;;;;;;;40.45;23.00;;;;;;;;;;4985319;28;20046;-66
2024/01/11 02:59:25;;;;;;;38.75;22.83;;;;;;;;;;5023667;28;20046;-66
2024/01/11 03:01:51;;;;;;;37.38;22.85;;;;;;;;;;4990785;28;20105;-66
2024/01/11 03:04:18;;;;;;;38.90;22.88;;;;;;;;;;4993902;28;20046;-66
2024/01/11 03:06:44;;;;;;;39.00;22.90;;;;;;;;;;4995386;28;20082;-66
2024/01/11 03:09:10;;;;;;;37.67;22.75;;;;;;;;;;4995481;28;20050;-66
2024/01/11 03:11:37;;;;;;;38.83;23.35;;;;;;;;;;4996384;28;20124;-66
2024/01/11 03:14:03;;;;;;;38.25;22.58;;;;;;;;;;5026014;28;20483;-66
2024/01/11 03:16:30;;;;;;;36.85;22.20;;;;;;;;;;4983941;28;20062;-67
2024/01/11 03:18:55;;;;;;;36.70;22.23;;;;;;;;;;4975782;28;20499;-66
2024/01/11 03:21:21;;;;;;;37.65;23.73;;;;;;;;;;4990749;28;20057;-66
2024/01/11 03:23:47;;;;;;;37.45;22.40;;;;;;;;;;4990417;28;20058;-66
2024/01/11 03:26:15;;;;;;;41.60;22.08;;;;;;;;;;4994414;28;20446;-66
2024/01/11 03:28:41;;;;;;;37.20;22.70;;;;;;;;;;4985166;28;20085;-66
2024/01/11 03:31:08;;;;;;;39.42;22.27;;;;;;;;;;5002337;28;20081;-66
2024/01/11 03:33:34;;;;;;;37.83;23.13;;;;;;;;;;5008235;28;20406;-66
2024/01/11 03:36:00;;;;;;;37.95;22.50;;;;;;;;;;4981189;28;20046;-66
2024/01/11 03:38:26;;;;;;;38.60;23.48;;;;;;;;;;4993323;28;20563;-66
2024/01/11 03:40:52;;;;;;;39.17;23.25;;;;;;;;;;4997217;28;20050;-66
2024/01/11 03:43:18;;;;;;;40.53;23.45;;;;;;;;;;4986936;28;20050;-66
2024/01/11 03:45:44;;;;;;;38.80;22.73;;;;;;;;;;4991579;28;20050;-66
2024/01/11 03:48:10;;;;;;;42.67;23.60;;;;;;;;;;4992741;28;20429;-66
2024/01/11 03:50:36;;;;;;;42.35;24.27;;;;;;;;;;4990787;28;20054;-66
2024/01/11 03:53:04;;;;;;;37.95;23.73;;;;;;;;;;4983803;28;20054;-66
2024/01/11 03:55:30;;;;;;;41.65;22.75;;;;;;;;;;5000903;28;20148;-66
2024/01/11 03:57:56;;;;;;;36.92;22.05;;;;;;;;;;4993062;28;20550;-67
2024/01/11 04:00:22;;;;;;;39.88;24.13;;;;;;;;;;4989438;28;20057;-66
2024/01/11 04:02:48;;;;;;;41.15;24.25;;;;;;;;;;4990592;28;20050;-66
2024/01/11 04:05:15;;;;;;;40.08;23.70;;;;;;;;;;4985201;28;20051;-66
2024/01/11 04:07:41;;;;;;;37.40;23.10;;;;;;;;;;5001290;28;20086;-66
2024/01/11 04:10:09;;;;;;;41.35;23.77;;;;;;;;;;5007773;28;20054;-66
2024/01/11 04:12:36;;;;;;;44.90;24.67;;;;;;;;;;4991193;28;20057;-67
2024/01/11 04:15:02;;;;;;;42.47;24.08;;;;;;;;;;5001196;28;20073;-66
2024/01/11 04:17:28;;;;;;;44.38;25.17;;;;;;;;;;5001334;28;20049;-66
2024/01/11 04:19:54;;;;;;;44.03;24.45;;;;;;;;;;4988507;28;20047;-66
2024/01/11 04:22:23;;;;;;;43.97;24.48;;;;;;;;;;4997933;28;20050;-66
2024/01/11 04:24:49;;;;;;;40.33;24.48;;;;;;;;;;5012314;28;20456;-66
2024/01/11 04:27:15;;;;;;;42.50;24.95;;;;;;;;;;4994788;28;20050;-66
2024/01/11 04:29:41;;;;;;;48.53;26.02;;;;;;;;;;4990051;28;20508;-66
2024/01/11 04:32:07;;;;;;;42.67;24.38;;;;;;;;;;5006045;28;20137;-66
2024/01/11 04:34:33;;;;;;;38.83;23.90;;;;;;;;;;5001889;28;20041;-66
2024/01/11 04:36:59;;;;;;;40.80;24.38;;;;;;;;;;4981646;28;20058;-66
2024/01/11 04:39:25;;;;;;;44.00;25.23;;;;;;;;;;5012040;28;20107;-66
2024/01/11 04:41:51;;;;;;;46.67;26.60;;;;;;;;;;5010000;28;20055;-66
2024/01/11 04:44:17;;;;;;;44.67;26.35;;;;;;;;;;5004079;28;20046;-66
2024/01/11 04:46:44;;;;;;;44.33;26.13;;;;;;;;;;5009817;28;20053;-66
2024/01/11 04:49:10;;;;;;;46.85;25.38;;;;;;;;;;4993723;28;20054;-66
2024/01/11 04:51:36;;;;;;;46.15;25.95;;;;;;;;;;4988465;28;20679;-66
2024/01/11 04:54:02;;;;;;;46.58;24.85;;;;;;;;;;4993204;28;20045;-66
2024/01/11 04:56:29;;;;;;;42.13;25.35;;;;;;;;;;4993673;28;20046;-66
2024/01/11 04:58:55;;;;;;;43.65;24.98;;;;;;;;;;4993351;28;20399;-66
2024/01/11 05:01:21;;;;;;;45.15;25.30;;;;;;;;;;4991544;28;20050;-66
2024/01/11 05:03:48;;;;;;;40.40;24.08;;;;;;;;;;4974080;28;20487;-66
2024/01/11 05:06:17;;;;;;;44.88;25.85;;;;;;;;;;4977521;28;20038;-66
2024/01/11 05:08:44;;;;;;;45.17;26.35;;;;;;;;;;4997156;28;20039;-66
2024/01/11 05:11:20;;;;;;;42.97;24.38;;;;;;;;;;4992046;28;20491;-66
2024/01/11 05:13:47;;;;;;;40.47;24.33;;;;;;;;;;4991824;28;20402;-66
2024/01/11 05:16:31;;;;;;;42.08;24.20;;;;;;;;;;4991050;28;20532;-66
2024/01/11 05:18:58;;;;;;;41.55;24.42;;;;;;;;;;4972865;28;20057;-66
2024/01/11 05:21:25;;;;;;;42.40;23.15;;;;;;;;;;4973751;28;20094;-66
2024/01/11 05:23:52;;;;;;;42.53;24.90;;;;;;;;;;4981414;28;20042;-66
2024/01/11 05:26:18;;;;;;;43.83;25.17;;;;;;;;;;4991402;28;20050;-66
2024/01/11 05:28:44;;;;;;;46.60;26.27;;;;;;;;;;4987066;28;20039;-67
2024/01/11 05:31:11;;;;;;;44.40;25.90;;;;;;;;;;4986403;28;20050;-66
2024/01/11 05:33:37;;;;;;;45.55;26.15;;;;;;;;;;4978623;28;20465;-67
2024/01/11 05:36:04;;;;;;;44.25;26.33;;;;;;;;;;4992077;28;20494;-66
2024/01/11 05:38:30;;;;;;;44.20;26.90;;;;;;;;;;4993529;28;20041;-67
2024/01/11 05:40:56;;;;;;;39.53;24.58;;;;;;;;;;4990238;28;20518;-67
2024/01/11 05:43:23;;;;;;;46.22;26.77;;;;;;;;;;4991847;28;20050;-67
2024/01/11 05:45:49;;;;;;;48.50;27.30;;;;;;;;;;5001509;28;20046;-66
2024/01/11 05:48:16;;;;;;;46.53;26.70;;;;;;;;;;4979543;28;20054;-66
2024/01/11 05:50:42;;;;;;;45.83;26.83;;;;;;;;;;4975378;28;20038;-67
2024/01/11 05:53:08;;;;;;;46.88;27.63;;;;;;;;;;4976635;28;20071;-66
2024/01/11 05:55:34;;;;;;;42.47;26.42;;;;;;;;;;4994769;28;20053;-67
2024/01/11 05:58:01;;;;;;;45.08;27.00;;;;;;;;;;4990767;28;20058;-66
2024/01/11 06:00:27;;;;;;;48.10;26.88;;;;;;;;;;5001915;28;20146;-67
2024/01/11 06:02:53;;;;;;;43.70;25.70;;;;;;;;;;4996480;28;20140;-66
2024/01/11 06:05:19;;;;;;;46.15;25.65;;;;;;;;;;4982644;28;20507;-66
2024/01/11 06:07:45;;;;;;;43.28;24.73;;;;;;;;;;4981764;28;20096;-66
2024/01/11 06:10:11;;;;;;;43.72;25.35;;;;;;;;;;4985967;28;20046;-67
2024/01/11 06:12:37;;;;;;;41.17;25.20;;;;;;;;;;4996091;28;20062;-66
2024/01/11 06:15:03;;;;;;;41.45;25.45;;;;;;;;;;4989662;28;20455;-66
2024/01/11 06:17:29;;;;;;;45.13;25.60;;;;;;;;;;4993450;28;20494;-67
2024/01/11 06:19:55;;;;;;;40.80;24.17;;;;;;;;;;4995540;28;20144;-67
2024/01/11 06:22:21;;;;;;;40.47;24.27;;;;;;;;;;4992041;28;20101;-67
2024/01/11 06:24:50;;;;;;;42.58;24.55;;;;;;;;;;4990144;28;20387;-66
2024/01/11 06:27:16;;;;;;;41.00;24.75;;;;;;;;;;4994223;28;20141;-66
2024/01/11 06:29:42;;;;;;;44.20;24.63;;;;;;;;;;4986001;28;20087;-66
2024/01/11 06:32:08;;;;;;;42.92;26.70;;;;;;;;;;4997109;28;20112;-66
2024/01/11 06:34:37;;;;;;;39.22;24.10;;;;;;;;;;4994572;28;20047;-67
2024/01/11 06:37:03;;;;;;;43.42;24.25;;;;;;;;;;4976781;28;20051;-66
2024/01/11 06:39:30;;;;;;;41.78;24.75;;;;;;;;;;4995514;28;20042;-67
2024/01/11 06:41:56;;;;;;;40.60;24.30;;;;;;;;;;4979917;28;20129;-67
2024/01/11 06:44:22;;;;;;;39.90;23.75;;;;;;;;;;5008085;28;20078;-66
2024/01/11 06:46:48;;;;;;;40.38;24.45;;;;;;;;;;5001884;28;20111;-67
2024/01/11 06:49:14;;;;;;;38.35;23.52;;;;;;;;;;5001741;28;20042;-67
2024/01/11 06:51:40;;;;;;;46.65;24.00;;;;;;;;;;4983088;28;20057;-66
2024/01/11 06:54:07;;;;;;;40.90;23.10;;;;;;;;;;4974239;28;20054;-67
2024/01/11 06:56:33;;;;;;;39.30;24.05;;;;;;;;;;5012717;28;20041;-67
2024/01/11 06:58:59;;;;;;;40.30;23.58;;;;;;;;;;5002497;28;20068;-67
2024/01/11 07:01:25;;;;;;;36.20;22.15;;;;;;;;;;4984387;28;20058;-66
2024/01/11 07:03:51;;;;;;;36.95;23.17;;;;;;;;;;4993010;28;20486;-67
2024/01/11 07:06:17;;;;;;;35.67;22.60;;;;;;;;;;4993355;28;20046;-67
2024/01/11 07:08:44;;;;;;;39.80;24.38;;;;;;;;;;4994104;28;20054;-66
2024/01/11 07:11:11;;;;;;;37.05;22.05;;;;;;;;;;4999860;28;20057;-67
2024/01/11 07:13:37;;;;;;;34.70;21.17;;;;;;;;;;4992748;28;20085;-67
2024/01/11 07:16:03;;;;;;;37.15;21.70;;;;;;;;;;4989900;28;20053;-66
2024/01/11 07:18:30;;;;;;;37.75;23.55;;;;;;;;;;4992848;28;20038;-66
2024/01/11 07:20:59;;;;;;;38.50;22.83;;;;;;;;;;4983976;28;20073;-66
2024/01/11 07:23:25;;;;;;;38.58;23.02;;;;;;;;;;4983607;28;20081;-67
2024/01/11 07:25:51;;;;;;;37.97;23.02;;;;;;;;;;4992011;28;20217;-67
2024/01/11 07:28:19;;;;;;;37.53;22.95;;;;;;;;;;5031227;28;20559;-66
2024/01/11 07:30:46;;;;;;;33.85;22.20;;;;;;;;;;5005864;28;20052;-67
2024/01/11 07:33:12;;;;;;;37.45;22.38;;;;;;;;;;4984525;28;20482;-66
2024/01/11 07:35:38;;;;;;;33.88;21.27;;;;;;;;;;4994414;28;20129;-67
2024/01/11 07:38:04;;;;;;;37.47;22.27;;;;;;;;;;4993506;28;20042;-67
2024/01/11 07:40:30;;;;;;;37.00;22.13;;;;;;;;;;4986681;28;20039;-66
2024/01/11 07:42:57;;;;;;;35.53;21.58;;;;;;;;;;4985058;28;20050;-67
2024/01/11 07:45:23;;;;;;;33.47;21.98;;;;;;;;;;5019364;28;20064;-67
2024/01/11 07:47:49;;;;;;;35.50;22.10;;;;;;;;;;4983859;28;20050;-67
2024/01/11 07:50:15;;;;;;;36.70;23.17;;;;;;;;;;4988491;28;20050;-66
2024/01/11 07:52:41;;;;;;;34.13;22.00;;;;;;;;;;5022518;28;20042;-67
2024/01/11 07:55:08;;;;;;;39.65;22.60;;;;;;;;;;5021631;28;20048;-66
2024/01/11 07:57:43;;;;;;;34.58;22.13;;;;;;;;;;4991263;28;20096;-67
2024/01/11 08:00:09;;;;;;;35.10;22.20;;;;;;;;;;4995230;28;20503;-66
2024/01/11 08:02:35;;;;;;;36.88;22.70;;;;;;;;;;4985825;28;20047;-66
2024/01/11 08:05:02;;;;;;;34.53;21.63;;;;;;;;;;4986308;28;20081;-66
2024/01/11 08:07:28;;;;;;;33.38;22.50;;;;;;;;;;4992551;28;20410;-66
2024/01/11 08:09:55;;;;;;;36.17;22.73;;;;;;;;;;4982371;28;20462;-66
2024/01/11 08:12:21;;;;;;;36.40;23.65;;;;;;;;;;4992002;28;20822;-66
2024/01/11 08:14:47;;;;;;;33.75;21.38;;;;;;;;;;4984651;28;20481;-66
2024/01/11 08:17:14;;;;;;;37.38;22.67;;;;;;;;;;4984336;28;20054;-66
2024/01/11 08:19:42;;;;;;;35.67;21.58;;;;;;;;;;4987526;28;20042;-66
2024/01/11 08:22:08;;;;;;;32.30;21.52;;;;;;;;;;4991855;28;20058;-66
2024/01/11 08:24:35;;;;;;;34.47;21.92;;;;;;;;;;4990995;28;20045;-66
2024/01/11 08:27:01;;;;;;;33.78;21.02;;;;;;;;;;5000802;28;20085;-66
2024/01/11 08:29:27;;;;;;;35.05;21.70;;;;;;;;;;4992933;28;20141;-66
2024/01/11 08:31:54;;;;;;;34.97;20.35;;;;;;;;;;5001902;28;20083;-66
2024/01/11 08:34:21;;;;;;;32.45;21.85;;;;;;;;;;4985760;28;20660;-66
2024/01/11 08:36:47;;;;;;;34.03;21.98;;;;;;;;;;4988927;28;20055;-66
2024/01/11 08:39:14;;;;;;;32.47;21.17;;;;;;;;;;4991399;28;20046;-66
2024/01/11 08:41:41;;;;;;;39.20;28.98;;;;;;;;;;4997776;28;20095;-66
2024/01/11 08:44:07;;;;;;;30.30;20.42;;;;;;;;;;4988331;28;20054;-66
2024/01/11 08:46:34;;;;;;;35.20;22.30;;;;;;;;;;4987146;28;20039;-66
2024/01/11 08:49:03;;;;;;;31.33;21.02;;;;;;;;;;4973144;28;20105;-66
2024/01/11 08:51:29;;;;;;;29.85;19.60;;;;;;;;;;4988307;28;22110;-67
2024/01/11 08:53:55;;;;;;;47.47;27.50;;;;;;;;;;4988636;28;20043;-67
2024/01/11 08:56:22;;;;;;;32.85;21.15;;;;;;;;;;4982782;28;20042;-66
2024/01/11 08:58:51;;;;;;;32.72;21.85;;;;;;;;;;4997923;28;20117;-66
2024/01/11 09:01:17;;;;;;;31.35;20.48;;;;;;;;;;4986711;28;20049;-66
2024/01/11 09:03:44;;;;;;;30.35;19.25;;;;;;;;;;4991015;28;20050;-66
2024/01/11 09:06:11;;;;;;;27.30;18.00;;;;;;;;;;4984765;28;20046;-66
2024/01/11 09:08:37;;;;;;;28.98;17.77;;;;;;;;;;4987612;28;20058;-66
2024/01/11 09:11:03;;;;;;;30.25;18.75;;;;;;;;;;4988086;28;20046;-66
2024/01/11 09:13:29;;;;;;;25.38;16.33;;;;;;;;;;4976860;28;20513;-66
2024/01/11 09:15:55;;;;;;;27.73;16.92;;;;;;;;;;4989547;28;20050;-66
2024/01/11 09:18:22;;;;;;;26.52;16.48;;;;;;;;;;4989696;28;20101;-66
2024/01/11 09:20:48;;;;;;;22.85;14.98;;;;;;;;;;4984694;28;20041;-75
2024/01/11 09:23:15;;;;;;;22.60;14.35;;;;;;;;;;4988398;28;20406;-66
2024/01/11 09:25:41;;;;;;;26.15;15.27;;;;;;;;;;5016865;28;20080;-66
2024/01/11 09:28:07;;;;;;;26.65;15.70;;;;;;;;;;4985073;28;20512;-67
2024/01/11 09:30:33;;;;;;;24.17;14.27;;;;;;;;;;4985000;28;20133;-66
2024/01/11 09:33:00;;;;;;;22.30;12.55;;;;;;;;;;4985649;28;20053;-66
2024/01/11 09:35:26;;;;;;;21.23;12.68;;;;;;;;;;4987348;28;20081;-66
2024/01/11 09:37:52;;;;;;;21.17;12.18;;;;;;;;;;4989229;28;20495;-66
2024/01/11 09:40:18;;;;;;;17.38;11.52;;;;;;;;;;4988280;28;20057;-66
2024/01/11 09:42:45;;;;;;;16.95;11.20;;;;;;;;;;5011243;28;20042;-66
2024/01/11 09:45:13;;;;;;;16.15;11.18;;;;;;;;;;4988044;28;20481;-66
2024/01/11 09:47:39;;;;;;;14.55;9.13;;;;;;;;;;5018822;28;20042;-66
2024/01/11 09:50:08;;;;;;;14.45;7.93;;;;;;;;;;4986371;28;20049;-66
2024/01/11 09:52:34;;;;;;;13.00;7.38;;;;;;;;;;4987168;28;20047;-67
2024/01/11 09:55:01;;;;;;;12.65;7.05;;;;;;;;;;4985220;28;20490;-67
2024/01/11 09:57:29;;;;;;;14.52;7.05;;;;;;;;;;4985707;28;20054;-66
2024/01/11 09:59:58;;;;;;;16.25;6.80;;;;;;;;;;4986558;28;20130;-66
2024/01/11 10:02:26;;;;;;;14.98;5.97;;;;;;;;;;4985514;28;20042;-67
2024/01/11 10:04:52;;;;;;;8.20;4.57;;;;;;;;;;4986664;28;20050;-66
2024/01/11 10:07:20;;;;;;;5.05;3.70;;;;;;;;;;4987555;28;20415;-66
2024/01/11 10:09:46;;;;;;;5.13;3.63;;;;;;;;;;4988285;28;20452;-66
2024/01/11 10:12:12;;;;;;;6.97;4.20;;;;;;;;;;4988584;28;20487;-66
2024/01/11 10:14:38;;;;;;;14.45;5.90;;;;;;;;;;5019042;28;20049;-66
2024/01/11 10:17:05;;;;;;;20.83;7.85;;;;;;;;;;4985448;28;20050;-66
2024/01/11 10:19:31;;;;;;;19.20;8.20;;;;;;;;;;4979453;28;20097;-67
2024/01/11 10:21:58;;;;;;;14.85;6.05;;;;;;;;;;4987822;28;20085;-66
2024/01/11 10:24:28;;;;;;;10.00;4.60;;;;;;;;;;4989035;28;20081;-66
2024/01/11 10:27:03;;;;;;;7.50;4.78;;;;;;;;;;4987675;28;20050;-66
2024/01/11 10:29:37;;;;;;;9.55;5.40;;;;;;;;;;4988880;28;20080;-67
2024/01/11 10:32:04;;;;;;;12.50;5.80;;;;;;;;;;4980889;28;20078;-67
2024/01/11 10:34:30;;;;;;;11.00;6.20;;;;;;;;;;4988010;28;20054;-66
2024/01/11 10:36:56;;;;;;;7.72;5.25;;;;;;;;;;4989250;28;20050;-67
2024/01/11 10:39:25;;;;;;;12.48;6.35;;;;;;;;;;4988386;28;20108;-67
2024/01/11 10:41:55;;;;;;;13.40;6.70;;;;;;;;;;4989722;28;20089;-67
2024/01/11 10:44:22;;;;;;;17.35;7.45;;;;;;;;;;4988165;28;20398;-66
2024/01/11 10:46:49;;;;;;;12.75;6.13;;;;;;;;;;4982641;28;20053;-66
2024/01/11 10:49:18;;;;;;;13.68;6.70;;;;;;;;;;4987597;28;20050;-67
2024/01/11 10:51:54;;;;;;;17.27;8.10;;;;;;;;;;4983728;28;20090;-67
2024/01/11 10:54:20;;;;;;;13.23;7.22;;;;;;;;;;4986782;28;20088;-66
2024/01/11 10:56:47;;;;;;;10.45;6.80;;;;;;;;;;4988727;28;20497;-66
2024/01/11 10:59:14;;;;;;;13.93;6.95;;;;;;;;;;4988041;28;20050;-67
2024/01/11 11:01:40;;;;;;;11.75;6.30;;;;;;;;;;4987077;28;20042;-66
2024/01/11 11:04:07;;;;;;;8.68;5.25;;;;;;;;;;4989528;28;20129;-67
2024/01/11 11:06:37;;;;;;;10.25;6.50;;;;;;;;;;4990304;28;20051;-67
2024/01/11 11:09:04;;;;;;;11.73;6.70;;;;;;;;;;4991091;28;20061;-67
2024/01/11 11:11:31;;;;;;;8.25;4.50;;;;;;;;;;4989869;28;20077;-67
2024/01/11 11:14:01;;;;;;;9.10;4.90;;;;;;;;;;4988579;28;20053;-67
2024/01/11 11:16:27;;;;;;;10.63;4.93;;;;;;;;;;4986976;28;20061;-66
2024/01/11 11:18:57;;;;;;;15.10;5.68;;;;;;;;;;4991914;28;20129;-67
2024/01/11 11:21:24;;;;;;;20.95;6.38;;;;;;;;;;4990600;28;20394;-67
2024/01/11 11:23:51;;;;;;;13.60;6.32;;;;;;;;;;4987794;28;20046;-67
2024/01/11 11:26:17;;;;;;;9.20;4.55;;;;;;;;;;4990360;28;20406;-67
2024/01/11 11:28:49;;;;;;;12.15;5.10;;;;;;;;;;4984371;28;20042;-66
2024/01/11 11:31:34;;;;;;;10.50;4.50;;;;;;;;;;4988721;28;20442;-67
2024/01/11 11:34:03;;;;;;;12.07;5.68;;;;;;;;;;4987249;28;20042;-67
2024/01/11 11:36:30;;;;;;;20.25;5.57;;;;;;;;;;4987659;28;20156;-67
2024/01/11 11:39:00;;;;;;;12.48;4.53;;;;;;;;;;4989764;28;20044;-67
2024/01/11 11:41:26;;;;;;;14.05;4.88;;;;;;;;;;4987122;28;20061;-67
2024/01/11 11:43:53;;;;;;;15.50;5.38;;;;;;;;;;4990559;28;20517;-67
2024/01/11 11:46:19;;;;;;;19.80;4.78;;;;;;;;;;4987002;28;20038;-67
2024/01/11 11:48:49;;;;;;;15.80;5.28;;;;;;;;;;4992056;28;20052;-67
2024/01/11 11:51:16;;;;;;;23.90;5.55;;;;;;;;;;4984825;28;20410;-66
2024/01/11 11:53:43;;;;;;;21.85;5.88;;;;;;;;;;5019562;28;20383;-67
2024/01/11 11:56:10;;;;;;;15.57;5.95;;;;;;;;;;4982715;28;20094;-67
2024/01/11 11:58:36;;;;;;;16.17;4.80;;;;;;;;;;4989276;28;20112;-67
2024/01/11 12:01:04;;;;;;;21.90;5.50;;;;;;;;;;5025300;28;20043;-66
2024/01/11 12:03:31;;;;;;;26.73;6.38;;;;;;;;;;4984892;28;20108;-67
2024/01/11 12:05:58;;;;;;;28.95;6.55;;;;;;;;;;4982123;28;20494;-67
2024/01/11 12:08:24;;;;;;;30.67;7.47;;;;;;;;;;4985696;28;20400;-66
2024/01/11 12:10:53;;;;;;;29.88;8.35;;;;;;;;;;4989513;28;20104;-66
2024/01/11 12:13:20;;;;;;;28.10;7.97;;;;;;;;;;4986303;28;20093;-67
2024/01/11 12:15:46;;;;;;;25.05;6.60;;;;;;;;;;4987970;28;20088;-66
2024/01/11 12:18:12;;;;;;;30.58;7.50;;;;;;;;;;4980155;28;20410;-67
2024/01/11 12:20:39;;;;;;;27.27;6.07;;;;;;;;;;4985290;28;20065;-66
2024/01/11 12:23:05;;;;;;;28.88;5.20;;;;;;;;;;4984938;28;20056;-67
2024/01/11 12:25:31;;;;;;;25.85;6.10;;;;;;;;;;4984512;28;20487;-67
2024/01/11 12:27:57;;;;;;;24.27;5.45;;;;;;;;;;4988574;28;20050;-67
2024/01/11 12:30:24;;;;;;;23.92;6.25;;;;;;;;;;4985786;28;20054;-66
2024/01/11 12:32:50;;;;;;;27.08;6.63;;;;;;;;;;4985265;28;20046;-67
2024/01/11 12:35:17;;;;;;;28.20;6.68;;;;;;;;;;4985203;28;20081;-67
2024/01/11 12:37:56;;;;;;;32.72;6.80;;;;;;;;;;4989168;28;20046;-67
2024/01/11 12:40:22;;;;;;;26.42;6.72;;;;;;;;;;5019948;28;20779;-67
2024/01/11 12:42:49;;;;;;;30.08;7.38;;;;;;;;;;4990409;28;20042;-66
2024/01/11 12:45:18;;;;;;;33.58;7.35;;;;;;;;;;4985045;28;20078;-67
2024/01/11 12:47:44;;;;;;;30.50;7.72;;;;;;;;;;4984938;28;20050;-66
2024/01/11 12:50:12;;;;;;;23.88;5.78;;;;;;;;;;4989659;28;20394;-67
2024/01/11 12:52:38;;;;;;;28.70;7.30;;;;;;;;;;4988495;28;20055;-67
2024/01/11 12:55:04;;;;;;;28.23;6.93;;;;;;;;;;4988319;28;20387;-67
2024/01/11 12:57:30;;;;;;;32.67;6.63;;;;;;;;;;4987867;28;20049;-67
2024/01/11 13:00:10;;;;;;;38.10;6.80;;;;;;;;;;5017382;28;20082;-67
2024/01/11 13:02:36;;;;;;;27.23;7.55;;;;;;;;;;5016496;28;20050;-67
2024/01/11 13:05:02;;;;;;;25.98;6.30;;;;;;;;;;5013536;28;20065;-67
2024/01/11 13:07:29;;;;;;;31.38;6.25;;;;;;;;;;4982805;28;20050;-67
2024/01/11 13:09:55;;;;;;;25.58;6.53;;;;;;;;;;4988586;28;20050;-67
2024/01/11 13:12:21;;;;;;;34.22;6.43;;;;;;;;;;4992272;28;20057;-66
2024/01/11 13:14:50;;;;;;;21.63;6.18;;;;;;;;;;4988379;28;20057;-67
2024/01/11 13:17:16;;;;;;;29.15;6.00;;;;;;;;;;4987011;28;20093;-67
2024/01/11 13:19:42;;;;;;;25.83;6.07;;;;;;;;;;5016620;28;20045;-67
2024/01/11 13:22:08;;;;;;;28.75;6.57;;;;;;;;;;4986553;28;20050;-67
2024/01/11 13:24:34;;;;;;;29.92;6.75;;;;;;;;;;5020956;28;20061;-67
2024/01/11 13:27:01;;;;;;;35.65;6.85;;;;;;;;;;4993074;28;20042;-67
2024/01/11 13:29:27;;;;;;;30.33;6.43;;;;;;;;;;4983498;28;20081;-67
2024/01/11 13:31:53;;;;;;;27.60;7.38;;;;;;;;;;4987282;28;20050;-67
2024/01/11 13:34:19;;;;;;;33.78;8.07;;;;;;;;;;4988060;28;20051;-67
2024/01/11 13:36:45;;;;;;;34.50;7.00;;;;;;;;;;4988865;28;20045;-67
2024/01/11 13:39:11;;;;;;;26.70;7.45;;;;;;;;;;4983072;28;20073;-67
2024/01/11 13:41:37;;;;;;;39.45;8.63;;;;;;;;;;4985899;28;20105;-67
2024/01/11 13:44:06;;;;;;;36.88;9.88;;;;;;;;;;4987884;28;20550;-67
2024/01/11 13:46:32;;;;;;;29.15;8.18;;;;;;;;;;4987261;28;20057;-67
2024/01/11 13:48:58;;;;;;;28.38;7.70;;;;;;;;;;4984768;28;20038;-67
2024/01/11 13:51:24;;;;;;;31.92;7.50;;;;;;;;;;4988179;28;20058;-68
2024/01/11 13:53:50;;;;;;;34.88;8.70;;;;;;;;;;4986605;28;20069;-67
2024/01/11 13:56:16;;;;;;;35.78;8.55;;;;;;;;;;4984275;28;20097;-67
2024/01/11 13:58:44;;;;;;;36.38;8.40;;;;;;;;;;4987108;28;20049;-67
2024/01/11 14:01:11;;;;;;;45.10;8.77;;;;;;;;;;4984513;28;20180;-67
2024/01/11 14:03:37;;;;;;;37.05;8.68;;;;;;;;;;4986219;28;20054;-67
2024/01/11 14:06:03;;;;;;;42.97;9.98;;;;;;;;;;4988151;28;20042;-67
2024/01/11 14:08:29;;;;;;;26.85;7.78;;;;;;;;;;4987743;28;20066;-67
2024/01/11 14:10:56;;;;;;;35.97;8.57;;;;;;;;;;4987909;28;20541;-68
2024/01/11 14:13:22;;;;;;;35.72;8.25;;;;;;;;;;4993643;28;20386;-67
2024/01/11 14:15:48;;;;;;;28.35;8.05;;;;;;;;;;4984711;28;20118;-67
2024/01/11 14:18:14;;;;;;;28.20;7.00;;;;;;;;;;4987463;28;20054;-67